Time;durP1;ratioP1;P1;durP2;ratioP2;P2;SDS_P1;SDS_P2;PMS_P1;PMS_P2;Temp;Humidity;BMP_temperature;BMP_pressure;BME280_temperature;BME280_humidity;BME280_pressure;Samples;Min_cycle;Max_cycle;Signal;HPM_P1;HPM_P2
2023/05/01 00:00:56;;;;;;;14.88;5.32;;;3.70;99.90;;;3.50;100.00;101176.78;5055626;28;20392;-76
2023/05/01 00:03:22;;;;;;;12.07;5.05;;;3.80;99.90;;;3.60;100.00;101181.09;5075898;28;20028;-76
2023/05/01 00:05:48;;;;;;;9.60;4.30;;;3.90;99.90;;;3.71;100.00;101179.97;5077708;28;20507;-76
2023/05/01 00:08:14;;;;;;;11.90;4.63;;;4.10;99.90;;;3.81;100.00;101171.78;5056273;28;20056;-76
2023/05/01 00:10:40;;;;;;;11.98;4.85;;;4.10;99.90;;;3.88;100.00;101170.13;5060348;28;20037;-76
2023/05/01 00:13:06;;;;;;;10.63;5.03;;;4.20;99.90;;;4.02;100.00;101162.44;5085529;28;20399;-76
2023/05/01 00:15:32;;;;;;;10.98;4.70;;;4.30;99.90;;;4.02;100.00;101154.34;5086533;28;20036;-76
2023/05/01 00:17:58;;;;;;;10.38;5.47;;;4.40;99.90;;;3.98;100.00;101155.69;5081104;28;20450;-76
2023/05/01 00:20:28;;;;;;;10.27;4.65;;;4.40;99.90;;;3.97;100.00;101146.72;5082195;28;20036;-76
2023/05/01 00:22:54;;;;;;;8.95;4.65;;;4.40;99.90;;;3.92;100.00;101153.59;5061894;28;20041;-76
2023/05/01 00:25:20;;;;;;;10.77;4.55;;;4.30;99.90;;;3.92;100.00;101156.31;5083549;28;20391;-76
2023/05/01 00:27:46;;;;;;;9.95;4.55;;;4.30;99.90;;;3.84;100.00;101157.97;5067952;28;20051;-76
2023/05/01 00:30:12;;;;;;;8.45;4.70;;;4.20;99.90;;;3.78;100.00;101153.19;5066119;28;20033;-76
2023/05/01 00:32:38;;;;;;;11.75;5.28;;;4.10;99.90;;;3.79;100.00;101135.16;5056893;28;20044;-75
2023/05/01 00:35:04;;;;;;;11.20;5.32;;;4.10;99.90;;;3.84;100.00;101128.25;5082599;28;20033;-76
2023/05/01 00:37:31;;;;;;;10.90;4.90;;;4.10;99.90;;;3.96;100.00;101130.66;5072349;28;20041;-76
2023/05/01 00:39:56;;;;;;;8.98;4.72;;;4.20;99.90;;;3.92;100.00;101134.69;5068503;28;20039;-76
2023/05/01 00:42:22;;;;;;;10.25;5.10;;;4.20;99.90;;;3.86;100.00;101128.13;5088454;28;20036;-75
2023/05/01 00:44:48;;;;;;;14.52;5.00;;;4.10;99.90;;;3.75;100.00;101123.84;5068493;28;20028;-75
2023/05/01 00:47:14;;;;;;;10.75;5.28;;;4.10;99.90;;;3.71;100.00;101127.84;5037321;28;20040;-75
2023/05/01 00:49:43;;;;;;;12.95;5.30;;;3.90;99.90;;;3.58;100.00;101129.13;5061087;28;20040;-75
2023/05/01 00:52:09;;;;;;;11.75;5.18;;;3.80;99.90;;;3.45;100.00;101128.72;5078699;28;20437;-75
2023/05/01 00:54:36;;;;;;;11.80;5.63;;;3.70;99.90;;;3.33;100.00;101135.34;5061572;28;20041;-75
2023/05/01 00:57:02;;;;;;;13.30;4.82;;;3.60;99.90;;;3.18;100.00;101125.13;5037452;28;20044;-75
2023/05/01 00:59:28;;;;;;;10.77;5.45;;;3.50;99.90;;;3.11;100.00;101127.63;5055816;28;20043;-75
2023/05/01 01:01:54;;;;;;;10.60;5.45;;;3.30;99.90;;;3.10;100.00;101134.00;5055773;28;20032;-75
2023/05/01 01:04:20;;;;;;;10.43;5.18;;;3.30;99.90;;;3.08;100.00;101132.47;5057544;28;20545;-75
2023/05/01 01:07:20;;;;;;;11.93;5.70;;;3.20;99.90;;;3.08;100.00;101127.06;5059410;28;20170;-75
2023/05/01 01:10:17;;;;;;;10.35;5.28;;;3.30;99.90;;;3.17;100.00;101129.69;5057158;28;20127;-75
2023/05/01 01:12:57;;;;;;;14.45;5.25;;;3.40;99.90;;;3.15;100.00;101130.81;5056980;28;20060;-76
2023/05/01 01:15:44;;;;;;;12.20;5.78;;;3.40;99.90;;;3.10;100.00;101114.28;5060222;28;20032;-76
2023/05/01 01:18:33;;;;;;;12.10;6.03;;;3.40;99.90;;;3.07;100.00;101118.16;5059588;28;20039;-75
2023/05/01 01:21:20;;;;;;;11.77;6.05;;;3.30;99.90;;;3.04;100.00;101114.91;5071203;28;20036;-75
2023/05/01 01:24:30;;;;;;;13.23;6.95;;;3.30;99.90;;;3.02;100.00;101118.59;5094573;28;20116;-75
2023/05/01 01:27:10;;;;;;;15.15;6.95;;;3.30;99.90;;;3.08;100.00;101110.88;5057847;28;20480;-75
2023/05/01 01:30:25;;;;;;;15.27;6.70;;;3.40;99.90;;;3.21;100.00;101121.28;5088167;28;20487;-75
2023/05/01 01:33:27;;;;;;;13.13;6.68;;;3.50;99.90;;;3.70;100.00;101099.16;5057129;28;20472;-75
2023/05/01 01:36:09;;;;;;;14.18;6.22;;;3.50;99.90;;;3.43;100.00;101101.03;5057034;28;20109;-75
2023/05/01 01:38:44;;;;;;;17.23;6.90;;;3.60;99.90;;;4.01;100.00;101095.97;5064558;28;20467;-75
2023/05/01 01:41:18;;;;;;;14.82;6.80;;;3.60;99.90;;;4.14;100.00;101092.81;5057457;28;20049;-75
2023/05/01 01:43:57;;;;;;;12.65;6.45;;;3.60;99.90;;;4.09;100.00;101087.88;5092038;28;20024;-75
2023/05/01 01:46:24;;;;;;;12.77;6.57;;;3.60;99.90;;;4.04;100.00;101082.13;5057421;28;20115;-75
2023/05/01 01:48:55;;;;;;;16.83;7.10;;;3.50;99.90;;;3.95;100.00;101080.38;5090466;28;20075;-75
2023/05/01 01:51:23;;;;;;;18.73;7.15;;;3.40;99.90;;;3.79;100.00;101071.22;5057231;28;20044;-75
2023/05/01 01:53:53;;;;;;;20.23;7.13;;;3.30;99.90;;;3.74;100.00;101087.06;5049206;28;20042;-75
2023/05/01 01:56:21;;;;;;;21.50;7.60;;;3.20;99.90;;;3.67;100.00;101075.19;5080395;28;20028;-75
2023/05/01 01:58:51;;;;;;;17.45;7.75;;;3.20;99.90;;;3.79;100.00;101073.06;5060874;28;20479;-75
2023/05/01 02:01:19;;;;;;;21.52;7.68;;;3.30;99.90;;;3.78;100.00;101064.13;5072740;28;20032;-75
2023/05/01 02:03:47;;;;;;;14.40;6.85;;;3.40;99.90;;;3.63;100.00;101049.53;5056905;28;20032;-75
2023/05/01 02:06:16;;;;;;;15.95;7.35;;;3.20;99.90;;;3.55;100.00;101064.69;5088009;28;20531;-75
2023/05/01 02:08:46;;;;;;;14.63;7.30;;;3.10;99.90;;;3.60;100.00;101061.53;5066714;28;20051;-75
2023/05/01 02:11:16;;;;;;;16.52;6.97;;;3.10;99.90;;;3.53;100.00;101061.31;5079633;28;20028;-75
2023/05/01 02:13:44;;;;;;;18.30;7.05;;;3.10;99.90;;;3.45;100.00;101050.47;5056293;28;20483;-75
2023/05/01 02:16:12;;;;;;;19.35;7.72;;;3.10;99.90;;;3.39;100.00;101043.00;5059974;28;20033;-75
2023/05/01 02:18:40;;;;;;;14.50;7.43;;;3.00;99.90;;;3.34;100.00;101061.53;5073368;28;20040;-75
2023/05/01 02:21:06;;;;;;;17.77;7.75;;;3.00;99.90;;;3.32;100.00;101050.91;5057138;28;20036;-75
2023/05/01 02:23:37;;;;;;;13.27;7.38;;;2.90;99.90;;;3.25;100.00;101042.59;5056244;28;20037;-75
2023/05/01 02:26:03;;;;;;;;;;;2.90;99.90;;;3.28;100.00;101050.38;5062210;28;20364;-75
2023/05/01 02:28:31;;;;;;;15.10;7.45;;;2.90;99.90;;;3.19;100.00;101031.59;5079164;28;19919;-75
2023/05/01 02:30:57;;;;;;;14.97;7.67;;;2.80;99.90;;;3.08;100.00;101028.19;5062540;28;20480;-75
2023/05/01 02:33:23;;;;;;;18.38;7.88;;;2.70;99.90;;;2.99;100.00;101021.88;5062281;28;20289;-75
2023/05/01 02:35:49;;;;;;;16.35;8.23;;;2.60;99.90;;;3.05;100.00;101031.19;5070009;28;20079;-75
2023/05/01 02:38:17;;;;;;;18.38;8.52;;;2.50;99.90;;;2.95;100.00;101016.94;5069882;28;20029;-75
2023/05/01 02:40:50;;;;;;;15.93;8.23;;;2.40;99.90;;;2.94;100.00;101017.94;5076881;28;20032;-75
2023/05/01 02:43:21;;;;;;;20.40;8.77;;;2.40;99.90;;;2.99;100.00;101008.41;5080101;28;20398;-75
2023/05/01 02:45:50;;;;;;;16.92;8.50;;;2.30;99.90;;;2.96;100.00;101008.72;5058284;28;20131;-75
2023/05/01 02:48:27;;;;;;;16.88;7.93;;;2.30;99.90;;;2.91;100.00;101013.72;5056090;28;20028;-75
2023/05/01 02:50:55;;;;;;;13.48;7.82;;;2.30;99.90;;;2.87;100.00;101015.03;5089852;28;20032;-75
2023/05/01 02:53:21;;;;;;;18.48;8.35;;;2.20;99.90;;;2.26;100.00;100999.56;5057777;28;20373;-75
2023/05/01 02:55:51;;;;;;;22.48;8.60;;;2.20;99.90;;;2.69;100.00;101010.53;5058612;28;20428;-75
2023/05/01 02:58:19;;;;;;;18.08;8.27;;;2.20;99.90;;;2.40;100.00;101008.09;5056968;28;20031;-75
2023/05/01 03:00:48;;;;;;;18.90;8.13;;;2.40;99.90;;;2.42;100.00;101001.56;5077306;28;20083;-75
2023/05/01 03:03:15;;;;;;;15.13;8.20;;;2.50;99.90;;;2.92;100.00;100984.91;5038940;28;20293;-75
2023/05/01 03:05:41;;;;;;;20.05;8.77;;;2.70;99.90;;;3.12;100.00;100999.88;5055758;28;20028;-75
2023/05/01 03:08:10;;;;;;;16.35;7.78;;;2.70;99.90;;;3.18;100.00;100998.38;5059888;28;20028;-75
2023/05/01 03:10:35;;;;;;;20.17;7.90;;;2.80;99.90;;;3.28;100.00;100998.28;5088510;28;20032;-75
2023/05/01 03:13:02;;;;;;;15.63;7.80;;;2.80;99.90;;;3.31;100.00;100993.41;5081651;28;20036;-75
2023/05/01 03:15:28;;;;;;;16.80;8.10;;;2.80;99.90;;;3.19;100.00;100973.13;5072427;28;20119;-75
2023/05/01 03:17:53;;;;;;;17.08;8.00;;;2.80;99.90;;;3.19;100.00;100983.94;5064010;28;20040;-75
2023/05/01 03:20:19;;;;;;;13.27;7.22;;;2.70;99.90;;;3.07;100.00;100977.97;5083513;28;20037;-74
2023/05/01 03:22:45;;;;;;;20.27;8.68;;;2.60;99.90;;;3.13;100.00;100979.16;5085691;28;20073;-74
2023/05/01 03:25:10;;;;;;;16.30;7.95;;;2.60;99.90;;;3.05;100.00;100968.31;5056434;28;20033;-75
2023/05/01 03:27:37;;;;;;;15.88;8.02;;;2.60;99.90;;;3.02;100.00;100980.25;5083930;28;20040;-75
2023/05/01 03:30:03;;;;;;;16.88;7.85;;;2.50;99.90;;;2.95;100.00;100973.81;5055474;28;20040;-75
2023/05/01 03:32:32;;;;;;;13.90;7.10;;;2.40;99.90;;;2.96;100.00;100973.69;5071869;28;20090;-75
2023/05/01 03:34:57;;;;;;;15.65;8.32;;;2.40;99.90;;;2.90;100.00;100968.06;5057313;28;20036;-74
2023/05/01 03:37:24;;;;;;;16.77;8.13;;;2.40;99.90;;;2.81;100.00;100951.84;5059306;28;20032;-74
2023/05/01 03:39:51;;;;;;;16.35;8.38;;;2.40;99.90;;;2.86;100.00;100971.06;5058312;28;20021;-75
2023/05/01 03:42:35;;;;;;;15.48;8.02;;;2.30;99.90;;;2.35;100.00;100973.53;5082890;28;20483;-75
2023/05/01 03:45:09;;;;;;;15.32;8.18;;;2.30;99.90;;;2.29;100.00;100952.63;5061812;28;20123;-75
2023/05/01 03:47:35;;;;;;;15.85;7.88;;;2.30;99.90;;;2.22;100.00;100959.63;5084638;28;20039;-75
2023/05/01 03:50:01;;;;;;;15.68;7.85;;;2.20;99.90;;;2.15;100.00;100960.25;5056357;28;20028;-75
2023/05/01 03:52:27;;;;;;;14.25;8.07;;;2.20;99.90;;;2.09;100.00;100960.84;5071051;28;20031;-75
2023/05/01 03:54:53;;;;;;;17.20;8.05;;;2.20;99.90;;;2.52;100.00;100965.59;5069972;28;20495;-75
2023/05/01 03:57:33;;;;;;;15.80;7.85;;;2.20;99.90;;;2.21;100.00;100955.25;5062616;28;20127;-75
2023/05/01 03:59:59;;;;;;;14.88;7.70;;;2.10;99.90;;;2.69;100.00;100934.22;5056206;28;20606;-75
2023/05/01 04:02:24;;;;;;;13.45;7.63;;;2.10;99.90;;;2.78;100.00;100932.44;5079028;28;20395;-75
2023/05/01 04:04:50;;;;;;;17.30;8.00;;;2.20;99.90;;;2.71;100.00;100938.47;5063188;28;20111;-75
2023/05/01 04:07:16;;;;;;;15.98;7.97;;;2.20;99.90;;;2.77;100.00;100930.75;5056968;28;20032;-74
2023/05/01 04:09:44;;;;;;;13.43;7.60;;;2.20;99.90;;;2.32;100.00;100944.22;5065435;28;20407;-75
2023/05/01 04:12:09;;;;;;;16.00;8.35;;;2.20;99.90;;;2.25;100.00;100937.78;5084784;28;20036;-75
2023/05/01 04:14:35;;;;;;;16.40;8.45;;;2.20;99.90;;;2.21;100.00;100947.16;5057502;28;20106;-75
2023/05/01 04:17:01;;;;;;;13.80;7.78;;;2.20;99.90;;;2.20;100.00;100945.47;5045182;28;20036;-75
2023/05/01 04:19:29;;;;;;;16.38;7.93;;;2.30;99.90;;;2.72;100.00;100937.47;5067203;28;20024;-75
2023/05/01 04:21:57;;;;;;;15.48;8.32;;;2.30;99.90;;;2.83;100.00;100936.38;5057632;28;20396;-75
2023/05/01 04:24:24;;;;;;;13.77;7.43;;;2.30;99.90;;;2.85;100.00;100934.34;5066007;28;20040;-75
2023/05/01 04:26:50;;;;;;;18.60;7.93;;;2.30;99.90;;;2.95;100.00;100936.09;5083763;28;20036;-75
2023/05/01 04:29:16;;;;;;;17.17;8.00;;;2.30;99.90;;;2.98;100.00;100931.22;5089102;28;20044;-75
2023/05/01 04:31:42;;;;;;;14.23;8.07;;;2.40;99.90;;;3.10;100.00;100930.94;5076802;28;20047;-76
2023/05/01 04:34:08;;;;;;;15.93;7.90;;;2.50;99.90;;;3.12;100.00;100927.09;5054914;28;20040;-75
2023/05/01 04:36:35;;;;;;;20.73;8.55;;;2.50;99.90;;;3.13;100.00;100925.22;5059740;28;20066;-75
2023/05/01 04:39:02;;;;;;;17.45;8.85;;;2.70;99.90;;;3.31;100.00;100912.50;5089313;28;20081;-75
2023/05/01 04:41:29;;;;;;;18.40;8.85;;;2.90;99.90;;;3.48;100.00;100917.97;5061633;28;20089;-75
2023/05/01 04:43:55;;;;;;;17.08;8.15;;;3.10;99.90;;;3.66;100.00;100917.84;5068643;28;20032;-74
2023/05/01 04:46:20;;;;;;;16.85;7.90;;;3.20;99.90;;;3.77;100.00;100922.09;5057305;28;20476;-75
2023/05/01 04:48:46;;;;;;;15.18;8.00;;;3.30;99.90;;;3.80;100.00;100921.75;5057440;28;20051;-75
2023/05/01 04:51:12;;;;;;;18.88;7.90;;;3.40;99.90;;;3.91;100.00;100919.75;5076422;28;20048;-75
2023/05/01 04:53:38;;;;;;;14.93;7.32;;;3.40;99.90;;;3.93;100.00;100921.28;5060454;28;20029;-75
2023/05/01 04:56:11;;;;;;;13.23;7.88;;;3.50;99.90;;;3.97;100.00;100910.97;5063949;28;20496;-75
2023/05/01 04:58:37;;;;;;;14.65;7.72;;;3.50;99.90;;;4.01;100.00;100906.97;5071043;28;20074;-75
2023/05/01 05:01:09;;;;;;;15.75;7.50;;;3.60;99.90;;;4.07;100.00;100917.09;5057871;28;20078;-75
2023/05/01 05:03:34;;;;;;;15.40;7.80;;;3.60;99.90;;;4.16;100.00;100918.75;5065376;28;20234;-75
2023/05/01 05:06:00;;;;;;;15.13;7.55;;;3.70;99.90;;;3.74;100.00;100923.25;5086007;28;20546;-75
2023/05/01 05:08:26;;;;;;;14.02;7.50;;;3.70;99.90;;;3.74;100.00;100917.03;5058217;28;20033;-75
2023/05/01 05:11:00;;;;;;;14.68;7.00;;;3.80;99.90;;;3.63;100.00;100890.34;5074823;28;20127;-75
2023/05/01 05:13:46;;;;;;;14.55;7.80;;;3.90;99.90;;;3.98;100.00;100918.91;5081051;28;20048;-75
2023/05/01 05:16:12;;;;;;;15.05;8.38;;;4.10;99.90;;;4.34;100.00;100917.75;5061985;28;20021;-75
2023/05/01 05:18:38;;;;;;;13.80;7.80;;;4.20;99.90;;;4.34;100.00;100917.75;5060791;28;20024;-75
2023/05/01 05:21:06;;;;;;;16.55;8.13;;;4.40;99.90;;;4.49;100.00;100920.63;5054239;28;20032;-75
2023/05/01 05:23:32;;;;;;;16.08;7.47;;;4.60;99.90;;;4.66;100.00;100913.34;5057568;28;20082;-75
2023/05/01 05:26:00;;;;;;;15.10;6.93;;;4.80;99.90;;;4.85;100.00;100908.59;5070634;28;20134;-75
2023/05/01 05:28:27;;;;;;;17.80;8.13;;;5.00;99.90;;;5.02;100.00;100909.38;5057118;28;20423;-75
2023/05/01 05:30:57;;;;;;;16.08;7.85;;;5.20;99.90;;;5.17;100.00;100906.78;5056422;28;20028;-75
2023/05/01 05:33:24;;;;;;;15.65;7.80;;;5.30;99.90;;;5.29;100.00;100902.66;5051004;28;20495;-76
2023/05/01 05:35:51;;;;;;;13.10;7.18;;;5.50;99.90;;;5.52;100.00;100910.00;5054128;28;20032;-75
2023/05/01 05:38:18;;;;;;;16.05;8.35;;;5.60;99.90;;;5.90;100.00;100912.84;5057384;28;20024;-75
2023/05/01 05:40:47;;;;;;;14.55;7.85;;;5.80;99.90;;;6.29;99.75;100893.97;5067376;28;20094;-76
2023/05/01 05:43:13;;;;;;;15.55;7.93;;;5.90;99.90;;;6.48;97.39;100898.03;5062844;28;20495;-76
2023/05/01 05:45:39;;;;;;;14.25;7.65;;;6.10;99.90;;;6.71;96.29;100891.72;5059884;28;20438;-76
2023/05/01 05:48:05;;;;;;;17.45;7.78;;;6.30;99.90;;;6.90;92.39;100884.91;5056107;28;20055;-76
2023/05/01 05:50:34;;;;;;;14.20;7.50;;;6.50;99.90;;;7.07;90.84;100873.84;5057268;28;20036;-76
2023/05/01 05:52:59;;;;;;;13.98;6.57;;;6.70;99.90;;;7.27;86.10;100871.41;5063241;28;20042;-76
2023/05/01 05:55:26;;;;;;;16.38;6.45;;;6.90;99.90;;;7.30;82.99;100869.16;5061901;28;20024;-76
2023/05/01 05:58:00;;;;;;;12.18;6.70;;;7.00;99.90;;;7.43;84.43;100876.63;5086872;28;20146;-76
2023/05/01 06:00:27;;;;;;;13.23;6.53;;;7.10;99.90;;;7.57;83.05;100869.47;5087962;28;20507;-76
2023/05/01 06:02:54;;;;;;;13.70;6.28;;;7.20;99.90;;;7.72;82.05;100872.13;5061062;28;20028;-76
2023/05/01 06:05:21;;;;;;;12.18;6.45;;;7.40;99.90;;;7.98;82.69;100878.06;5065371;28;20028;-76
2023/05/01 06:07:46;;;;;;;12.50;6.57;;;7.60;99.90;;;8.02;79.36;100860.31;5085430;28;20032;-76
2023/05/01 06:10:12;;;;;;;12.35;6.50;;;7.80;99.90;;;8.16;78.97;100858.56;5057718;28;20450;-76
2023/05/01 06:12:39;;;;;;;10.90;6.28;;;7.90;99.90;;;8.32;76.75;100861.00;5058792;28;20035;-76
2023/05/01 06:15:06;;;;;;;12.15;6.53;;;8.00;99.90;;;8.33;78.54;100859.13;5066327;28;20032;-76
2023/05/01 06:17:34;;;;;;;12.27;6.57;;;8.10;99.90;;;8.39;75.67;100849.34;5073745;28;20407;-76
2023/05/01 06:20:01;;;;;;;15.13;7.00;;;8.20;99.90;;;8.41;75.09;100844.56;5058419;28;20077;-76
2023/05/01 06:22:27;;;;;;;12.93;6.63;;;8.20;99.90;;;8.75;75.93;100861.97;5070429;28;20066;-76
2023/05/01 06:25:06;;;;;;;10.10;6.10;;;8.30;99.90;;;8.81;73.32;100844.00;5069425;28;20032;-74
2023/05/01 06:27:32;;;;;;;8.17;5.30;;;8.50;99.90;;;8.97;72.16;100849.09;5067513;28;20041;-75
2023/05/01 06:29:58;;;;;;;11.00;5.70;;;8.70;99.90;;;9.00;69.87;100834.28;5068355;28;20873;-75
2023/05/01 06:32:23;;;;;;;10.75;5.97;;;8.80;99.90;;;9.17;69.22;100834.75;5072979;28;20032;-75
2023/05/01 06:34:49;;;;;;;11.98;5.68;;;8.90;99.90;;;9.46;69.10;100839.06;5072492;28;20054;-76
2023/05/01 06:37:16;;;;;;;12.75;6.32;;;9.10;99.90;;;9.56;67.09;100835.09;5073022;28;20491;-76
2023/05/01 06:39:42;;;;;;;12.13;5.78;;;9.30;99.90;;;9.66;65.81;100834.72;5054515;28;20047;-76
2023/05/01 06:42:10;;;;;;;10.00;5.55;;;9.50;99.90;;;9.85;67.01;100831.19;5055748;28;20036;-76
2023/05/01 06:44:38;;;;;;;9.25;5.70;;;9.60;99.90;;;9.96;65.20;100826.16;5055169;28;20102;-77
2023/05/01 06:47:04;;;;;;;12.15;5.68;;;9.80;99.90;;;10.04;66.02;100826.81;5057376;28;20040;-76
2023/05/01 06:49:30;;;;;;;10.48;5.72;;;9.80;99.90;;;10.24;67.38;100822.38;5072898;28;20044;-76
2023/05/01 06:51:56;;;;;;;10.55;5.45;;;10.00;99.90;;;10.42;67.58;100830.81;5091014;28;20028;-76
2023/05/01 06:54:21;;;;;;;12.65;5.72;;;10.10;99.90;;;10.42;64.75;100806.25;5066462;28;20438;-75
2023/05/01 06:56:47;;;;;;;11.70;5.53;;;10.20;99.90;;;10.57;64.54;100811.47;5069020;28;20032;-76
2023/05/01 06:59:13;;;;;;;12.60;5.40;;;10.30;99.90;;;10.60;62.52;100794.69;5063129;28;20040;-76
2023/05/01 07:01:39;;;;;;;12.73;5.22;;;10.50;99.90;;;10.75;64.28;100805.34;5055136;28;20040;-77
2023/05/01 07:04:05;;;;;;;10.45;5.75;;;10.60;99.90;;;10.90;62.73;100810.53;5090318;28;20032;-76
2023/05/01 07:06:51;;;;;;;14.23;5.85;;;10.70;99.90;;;10.99;62.55;100783.84;5090814;28;20039;-77
2023/05/01 07:09:16;;;;;;;9.68;5.30;;;10.90;99.90;;;11.14;64.23;100804.56;5072144;28;20024;-77
2023/05/01 07:11:43;;;;;;;9.60;5.25;;;10.90;99.90;;;11.34;62.81;100813.50;5090802;28;20146;-77
2023/05/01 07:14:09;;;;;;;10.85;5.50;;;11.10;99.90;;;11.34;61.84;100804.50;5068476;28;20036;-76
2023/05/01 07:16:34;;;;;;;10.45;5.63;;;11.10;99.90;;;11.30;61.98;100804.09;5066007;28;20093;-77
2023/05/01 07:19:01;;;;;;;10.35;5.18;;;11.10;99.90;;;11.39;63.47;100809.28;5079253;28;20040;-77
2023/05/01 07:21:27;;;;;;;10.50;5.25;;;11.20;99.90;;;11.49;62.75;100801.47;5077638;28;20050;-77
2023/05/01 07:23:53;;;;;;;10.00;5.15;;;11.30;99.90;;;11.57;60.84;100797.66;5039905;28;20499;-77
2023/05/01 07:26:18;;;;;;;12.80;5.60;;;11.40;99.90;;;11.75;61.04;100794.16;5068799;28;20367;-77
2023/05/01 07:28:44;;;;;;;10.13;4.93;;;11.60;99.90;;;12.06;58.79;100776.06;5056400;28;20397;-77
2023/05/01 07:31:10;;;;;;;10.13;5.30;;;11.80;99.90;;;12.17;58.66;100775.31;5081010;28;20032;-76
2023/05/01 07:33:36;;;;;;;8.30;4.45;;;12.00;99.90;;;12.29;57.75;100772.69;5054340;28;20066;-77
2023/05/01 07:36:03;;;;;;;8.50;3.97;;;12.20;99.90;;;12.48;55.51;100770.84;5077114;28;20032;-76
2023/05/01 07:38:29;;;;;;;8.82;4.18;;;12.20;99.90;;;12.52;54.88;100752.06;5085453;28;20044;-76
2023/05/01 07:40:55;;;;;;;12.55;5.65;;;12.40;99.90;;;12.83;56.38;100771.28;5037605;28;20078;-76
2023/05/01 07:43:22;;;;;;;9.50;4.10;;;12.60;99.90;;;13.06;54.48;100765.97;5054415;28;20480;-76
2023/05/01 07:45:59;;;;;;;8.50;3.95;;;12.80;99.90;;;13.41;54.43;100767.19;5054348;28;20422;-76
2023/05/01 07:48:28;;;;;;;10.43;3.90;;;13.00;99.90;;;13.40;51.20;100745.47;5079087;28;20032;-76
2023/05/01 07:50:55;;;;;;;8.48;3.83;;;13.20;98.60;;;13.36;50.13;100750.56;5086467;28;20029;-76
2023/05/01 07:53:23;;;;;;;8.15;3.67;;;13.30;97.50;;;13.30;51.09;100737.81;5071765;28;20526;-75
2023/05/01 07:55:49;;;;;;;6.20;3.90;;;13.30;97.50;;;13.52;52.95;100762.81;5082600;28;20036;-75
2023/05/01 07:58:18;;;;;;;9.05;3.67;;;13.40;99.10;;;13.73;52.81;100761.44;5089734;28;20039;-76
2023/05/01 08:00:44;;;;;;;9.40;4.05;;;13.50;99.30;;;13.87;51.25;100751.09;5089050;28;20039;-76
2023/05/01 08:03:11;;;;;;;8.27;3.92;;;13.70;98.00;;;14.16;50.13;100751.25;5085121;28;20047;-75
2023/05/01 08:05:41;;;;;;;8.48;3.90;;;13.80;97.40;;;14.20;50.25;100748.88;5067562;28;20037;-76
2023/05/01 08:08:08;;;;;;;7.45;3.72;;;14.00;96.90;;;14.12;47.99;100733.59;5075620;28;20040;-76
2023/05/01 08:10:33;;;;;;;7.68;4.10;;;14.00;94.60;;;14.38;50.16;100745.16;5083452;28;20392;-76
2023/05/01 08:12:59;;;;;;;6.38;3.17;;;14.10;96.70;;;14.78;47.56;100719.66;5093064;28;20035;-75
2023/05/01 08:15:25;;;;;;;7.78;3.70;;;14.30;94.80;;;14.97;48.98;100741.47;5093340;28;20403;-76
2023/05/01 08:17:51;;;;;;;10.27;4.32;;;14.50;95.80;;;14.90;46.18;100721.56;5088026;28;20040;-76
2023/05/01 08:20:17;;;;;;;7.38;4.03;;;14.60;93.10;;;14.56;47.18;100713.97;5062376;28;20037;-77
2023/05/01 08:22:42;;;;;;;10.05;4.10;;;14.70;93.30;;;14.45;46.57;100704.69;5071118;28;20040;-76
2023/05/01 08:25:08;;;;;;;7.72;3.40;;;14.60;92.40;;;14.70;46.52;100721.94;5071658;28;20040;-77
2023/05/01 08:27:34;;;;;;;6.88;3.20;;;14.70;92.30;;;14.66;45.25;100710.63;5056987;28;20044;-75
2023/05/01 08:30:00;;;;;;;8.27;3.63;;;14.70;91.00;;;14.71;47.73;100721.72;5062149;28;20044;-78
2023/05/01 08:32:25;;;;;;;9.50;3.58;;;14.80;92.80;;;14.60;46.64;100722.56;5075741;28;20050;-78
2023/05/01 08:34:51;;;;;;;8.68;3.55;;;14.70;92.10;;;14.59;46.57;100720.91;5092979;28;20044;-78
2023/05/01 08:37:18;;;;;;;10.77;3.97;;;14.70;91.60;;;14.41;45.37;100703.50;5063217;28;20041;-76
2023/05/01 08:39:43;;;;;;;7.80;3.90;;;14.70;90.60;;;14.84;47.80;100720.63;5091494;28;20159;-76
2023/05/01 08:42:10;;;;;;;7.22;3.72;;;14.70;92.70;;;15.05;45.31;100707.28;5066583;28;20119;-76
2023/05/01 08:44:40;;;;;;;8.38;3.88;;;14.90;90.80;;;15.30;47.01;100708.84;5060359;28;20150;-76
2023/05/01 08:47:14;;;;;;;6.43;3.75;;;15.10;92.40;;;15.62;46.84;100717.38;5087010;28;20043;-76
2023/05/01 08:49:44;;;;;;;8.48;3.90;;;15.50;92.30;;;15.63;44.70;100704.47;5082708;28;20032;-76
2023/05/01 08:52:12;;;;;;;11.00;3.67;;;15.70;90.20;;;15.41;44.23;100702.44;5069767;28;20036;-75
2023/05/01 08:54:42;;;;;;;7.35;3.67;;;15.70;88.80;;;15.17;44.57;100708.06;5056442;28;20130;-75
2023/05/01 08:57:10;;;;;;;7.70;3.35;;;15.50;89.10;;;15.72;45.88;100705.72;5093064;28;20043;-75
2023/05/01 08:59:38;;;;;;;6.90;2.97;;;15.60;91.00;;;16.06;43.76;100697.47;5093573;28;20101;-76
2023/05/01 09:02:08;;;;;;;7.97;3.28;;;15.90;88.90;;;16.15;44.74;100708.88;5092292;28;20071;-76
2023/05/01 09:04:39;;;;;;;7.05;3.42;;;16.10;90.00;;;16.63;42.82;100697.41;5060841;28;20033;-76
2023/05/01 09:07:05;;;;;;;6.53;3.10;;;16.40;87.80;;;16.71;42.87;100683.19;5056524;28;20036;-76
2023/05/01 09:09:32;;;;;;;6.57;3.03;;;16.60;86.70;;;16.77;42.01;100697.84;5075181;28;20033;-76
2023/05/01 09:12:20;;;;;;;6.13;3.50;;;16.80;84.50;;;16.22;41.04;100670.16;5084194;28;20432;-76
2023/05/01 09:14:46;;;;;;;6.68;3.45;;;16.60;81.30;;;16.39;43.04;100694.88;5056832;28;20029;-76
2023/05/01 09:17:12;;;;;;;6.95;3.25;;;16.50;85.10;;;16.27;42.33;100674.91;5059194;28;20028;-76
2023/05/01 09:19:39;;;;;;;6.60;3.03;;;16.50;83.60;;;16.22;44.16;100695.78;5063176;28;20032;-76
2023/05/01 09:22:08;;;;;;;7.80;3.23;;;16.40;86.90;;;16.63;42.01;100683.63;5080413;28;20040;-76
2023/05/01 09:24:34;;;;;;;8.02;3.33;;;16.50;84.10;;;16.89;42.62;100678.41;5083357;28;20028;-76
2023/05/01 09:27:00;;;;;;;6.93;3.60;;;16.80;84.30;;;16.78;42.47;100675.56;5087317;28;20036;-77
2023/05/01 09:29:47;;;;;;;6.45;3.20;;;16.80;83.60;;;16.61;40.55;100666.53;5082380;28;20039;-76
2023/05/01 09:32:29;;;;;;;8.02;3.20;;;16.70;80.70;;;17.20;41.91;100668.59;5079951;28;20038;-76
2023/05/01 09:35:13;;;;;;;8.02;3.45;;;17.00;83.80;;;17.83;40.81;100669.94;5092982;28;20052;-76
2023/05/01 09:37:40;;;;;;;7.80;3.53;;;17.40;83.30;;;17.94;40.78;100655.09;5086204;28;20067;-76
2023/05/01 09:40:08;;;;;;;6.43;3.37;;;17.80;81.90;;;18.55;40.89;100644.66;5088650;28;20476;-77
2023/05/01 09:42:49;;;;;;;7.82;3.30;;;18.20;82.70;;;18.53;38.68;100638.56;5074161;28;20040;-76
2023/05/01 09:45:16;;;;;;;7.88;3.25;;;18.30;77.60;;;18.53;39.00;100635.81;5057646;28;20107;-77
2023/05/01 09:47:42;;;;;;;8.27;3.42;;;18.40;78.20;;;18.89;38.79;100635.91;5089172;28;20116;-76
2023/05/01 09:50:10;;;;;;;8.23;3.30;;;18.50;77.80;;;18.40;37.23;100606.75;5063171;28;20490;-77
2023/05/01 09:52:35;;;;;;;7.40;3.45;;;18.70;74.10;;;19.08;38.97;100644.53;5081757;28;20036;-76
2023/05/01 09:55:12;;;;;;;6.03;3.00;;;18.70;77.80;;;18.87;37.85;100629.81;5069346;28;20048;-77
2023/05/01 09:57:39;;;;;;;6.93;3.40;;;18.90;74.90;;;19.08;38.42;100639.00;5085229;28;20048;-76
2023/05/01 10:00:08;;;;;;;8.13;3.50;;;18.90;76.30;;;19.44;36.51;100615.25;5080509;28;20181;-76
2023/05/01 10:02:35;;;;;;;6.22;3.33;;;19.20;73.60;;;19.88;36.54;100611.84;5058072;28;20059;-76
2023/05/01 10:05:01;;;;;;;7.47;3.15;;;19.50;73.60;;;19.78;36.05;100620.19;5088812;28;20044;-75
2023/05/01 10:07:28;;;;;;;5.72;2.95;;;19.70;72.10;;;20.18;35.77;100625.94;5086329;28;20076;-75
2023/05/01 10:09:54;;;;;;;8.70;3.22;;;;;;;21.12;33.96;100616.84;5057868;28;20475;-76
2023/05/01 10:12:29;;;;;;;6.13;3.20;;;;;;;21.83;32.64;100605.41;5089083;28;20412;-76
2023/05/01 10:14:56;;;;;;;8.57;3.38;;;;;;;22.10;32.89;100611.53;5081516;28;20066;-76
2023/05/01 10:17:23;;;;;;;5.45;2.97;;;;;;;23.28;31.53;100602.66;5076609;28;20045;-76
2023/05/01 10:19:50;;;;;;;6.22;2.92;;;;;;;24.03;29.63;100591.59;5057675;28;20166;-75
2023/05/01 10:22:16;;;;;;;7.63;3.13;;;;;;;24.07;31.21;100608.50;5087743;28;20486;-77